Time;durP1;ratioP1;P1;durP2;ratioP2;P2;SDS_P1;SDS_P2;PMS_P1;PMS_P2;Temp;Humidity;BMP_temperature;BMP_pressure;BME280_temperature;BME280_humidity;BME280_pressure;Samples;Min_cycle;Max_cycle;Signal;HPM_P1;HPM_P2
2022/09/07 00:00:41;;;;;;;2.58;1.33;;;27.00;49.50;;;;;;5026977;28;20025;-50
2022/09/07 00:03:07;;;;;;;1.73;0.80;;;27.00;49.50;;;;;;5024397;28;20112;-54
2022/09/07 00:05:33;;;;;;;1.35;0.82;;;27.00;49.40;;;;;;5024632;28;20497;-50
2022/09/07 00:07:59;;;;;;;1.40;0.75;;;27.00;49.40;;;;;;5029467;28;20460;-51
2022/09/07 00:10:25;;;;;;;2.03;1.00;;;26.90;49.40;;;;;;5027915;28;20420;-47
2022/09/07 00:12:52;;;;;;;2.58;1.02;;;27.00;49.40;;;;;;5028808;28;20025;-47
2022/09/07 00:15:18;;;;;;;1.85;0.85;;;27.00;49.40;;;;;;5020104;28;20037;-56
2022/09/07 00:17:44;;;;;;;1.40;0.80;;;27.00;49.40;;;;;;5029480;28;20441;-48
2022/09/07 00:20:10;;;;;;;1.65;0.80;;;26.90;49.30;;;;;;5028276;28;20026;-52
2022/09/07 00:22:37;;;;;;;1.20;0.77;;;26.90;49.30;;;;;;5027305;28;20041;-53
2022/09/07 00:25:04;;;;;;;1.70;0.70;;;26.90;49.40;;;;;;5023650;28;20057;-54
2022/09/07 00:27:29;;;;;;;1.20;0.60;;;26.90;49.40;;;;;;5025837;28;20072;-54
2022/09/07 00:29:55;;;;;;;1.83;1.00;;;26.90;49.50;;;;;;5031890;28;20452;-49
2022/09/07 00:32:21;;;;;;;1.40;0.70;;;26.90;49.50;;;;;;5028995;28;20030;-50
2022/09/07 00:34:49;;;;;;;1.50;0.70;;;26.80;49.50;;;;;;5031492;28;20029;-51
2022/09/07 00:37:15;;;;;;;1.70;0.90;;;26.90;49.70;;;;;;5029830;28;20056;-53
2022/09/07 00:39:41;;;;;;;0.50;0.50;;;26.90;49.70;;;;;;5027072;28;20425;-51
2022/09/07 00:42:07;;;;;;;1.73;0.65;;;26.80;49.60;;;;;;5030696;28;20048;-51
2022/09/07 00:44:41;;;;;;;0.98;0.90;;;26.80;49.60;;;;;;5029248;28;20021;-50
2022/09/07 00:47:22;;;;;;;2.53;0.80;;;26.80;49.60;;;;;;5023975;28;20523;-51
2022/09/07 00:49:54;;;;;;;2.28;0.80;;;26.80;49.60;;;;;;5029307;28;20045;-52
2022/09/07 00:52:22;;;;;;;1.52;0.80;;;26.80;49.60;;;;;;5027066;28;20068;-50
2022/09/07 00:54:54;;;;;;;0.95;0.60;;;26.80;49.60;;;;;;5023069;28;20026;-51
2022/09/07 00:57:20;;;;;;;1.17;0.77;;;26.80;49.60;;;;;;5025959;28;20033;-49
2022/09/07 00:59:52;;;;;;;1.10;0.60;;;26.80;49.60;;;;;;5026682;28;20029;-52
2022/09/07 01:02:18;;;;;;;1.92;0.63;;;26.80;49.70;;;;;;5023208;28;20044;-47
2022/09/07 01:05:00;;;;;;;1.15;0.50;;;26.80;49.80;;;;;;5026291;28;20404;-54
2022/09/07 01:07:26;;;;;;;1.10;0.50;;;26.80;49.90;;;;;;5030278;28;20029;-51
2022/09/07 01:09:53;;;;;;;1.95;0.75;;;26.80;49.90;;;;;;5029964;28;20361;-52
2022/09/07 01:12:19;;;;;;;1.45;0.75;;;26.80;49.90;;;;;;5024668;28;20217;-51
2022/09/07 01:14:49;;;;;;;1.38;0.60;;;26.70;49.90;;;;;;5030669;28;20518;-52
2022/09/07 01:17:52;;;;;;;1.13;0.60;;;26.70;49.90;;;;;;5025461;28;20041;-51
2022/09/07 01:20:49;;;;;;;1.65;0.60;;;26.70;49.90;;;;;;5027695;28;20068;-50
2022/09/07 01:23:18;;;;;;;3.25;0.70;;;26.70;49.90;;;;;;5024412;28;20029;-51
2022/09/07 01:26:08;;;;;;;1.52;0.60;;;26.70;49.90;;;;;;5024621;28;20072;-51
2022/09/07 01:28:35;;;;;;;1.00;0.52;;;26.70;49.90;;;;;;5023795;28;20033;-49
2022/09/07 01:31:23;;;;;;;1.15;0.55;;;26.70;49.90;;;;;;5030827;28;20030;-50
2022/09/07 01:34:13;;;;;;;0.70;0.40;;;26.70;49.90;;;;;;5025749;28;20032;-52
2022/09/07 01:36:51;;;;;;;1.27;0.43;;;26.70;49.90;;;;;;5025543;28;20525;-50
2022/09/07 01:39:23;;;;;;;1.05;0.57;;;26.60;49.80;;;;;;5026050;28;20401;-47
2022/09/07 01:42:08;;;;;;;1.38;0.63;;;26.60;49.80;;;;;;5028603;28;20029;-50
2022/09/07 01:44:59;;;;;;;0.93;0.50;;;26.60;49.80;;;;;;5024180;28;20041;-51
2022/09/07 01:47:44;;;;;;;0.70;0.50;;;26.60;49.80;;;;;;5022282;28;20041;-54
2022/09/07 01:50:32;;;;;;;0.63;0.40;;;26.60;49.80;;;;;;5029928;28;20037;-52
2022/09/07 01:53:05;;;;;;;1.38;0.47;;;26.60;49.90;;;;;;5026811;28;20029;-50
2022/09/07 01:55:43;;;;;;;0.77;0.60;;;26.60;49.90;;;;;;5022852;28;20037;-52
2022/09/07 01:58:14;;;;;;;0.60;0.30;;;26.60;49.90;;;;;;5026935;28;20029;-48
2022/09/07 02:00:44;;;;;;;0.88;0.35;;;26.50;49.90;;;;;;5029659;28;20357;-54
2022/09/07 02:03:39;;;;;;;1.08;0.60;;;26.50;49.90;;;;;;5025708;28;20061;-51
2022/09/07 02:06:17;;;;;;;1.10;0.40;;;26.50;49.90;;;;;;5023572;28;20499;-50
2022/09/07 02:08:58;;;;;;;0.88;0.50;;;26.50;49.90;;;;;;5026767;28;20099;-55
2022/09/07 02:11:35;;;;;;;0.63;0.40;;;26.50;49.90;;;;;;5025143;28;20041;-53
2022/09/07 02:14:27;;;;;;;1.55;0.40;;;26.50;49.90;;;;;;5022858;28;20064;-49
2022/09/07 02:16:59;;;;;;;0.65;0.40;;;26.50;49.90;;;;;;5025804;28;20033;-53
2022/09/07 02:19:29;;;;;;;1.30;0.50;;;26.50;50.00;;;;;;5027903;28;20409;-51
2022/09/07 02:22:07;;;;;;;0.60;0.35;;;26.40;49.90;;;;;;5024441;28;20112;-51
2022/09/07 02:24:39;;;;;;;1.80;0.45;;;26.50;49.90;;;;;;5026846;28;20041;-54
2022/09/07 02:27:16;;;;;;;1.15;0.50;;;26.50;49.90;;;;;;5026640;28;20029;-57
2022/09/07 02:29:42;;;;;;;0.52;0.40;;;26.50;50.00;;;;;;5022400;28;20041;-53
2022/09/07 02:32:09;;;;;;;0.45;0.30;;;26.50;50.00;;;;;;5027862;28;20083;-51
2022/09/07 02:34:35;;;;;;;0.25;0.22;;;26.50;50.00;;;;;;5021352;28;20037;-51
2022/09/07 02:37:05;;;;;;;0.47;0.30;;;26.50;50.00;;;;;;5021875;28;20022;-55
2022/09/07 02:39:31;;;;;;;0.35;0.30;;;26.40;49.90;;;;;;5025100;28;20052;-53
2022/09/07 02:41:56;;;;;;;0.73;0.40;;;26.40;49.90;;;;;;5027925;28;20026;-53
2022/09/07 02:44:30;;;;;;;0.93;0.40;;;26.40;50.00;;;;;;5024902;28;20029;-51
2022/09/07 02:47:23;;;;;;;0.85;0.40;;;26.40;50.00;;;;;;5022956;28;20437;-52
2022/09/07 02:50:11;;;;;;;1.33;0.40;;;26.40;49.90;;;;;;5018473;28;20364;-53
2022/09/07 02:52:43;;;;;;;0.52;0.32;;;26.40;49.90;;;;;;5020478;28;20053;-54
2022/09/07 02:55:14;;;;;;;0.98;0.50;;;26.40;49.90;;;;;;5027406;28;20026;-51
2022/09/07 02:58:14;;;;;;;0.82;0.32;;;26.40;50.00;;;;;;5023758;28;20128;-53
2022/09/07 03:00:49;;;;;;;0.65;0.40;;;26.40;49.90;;;;;;5021728;28;20050;-50
2022/09/07 03:03:52;;;;;;;0.85;0.38;;;26.40;49.90;;;;;;5026209;28;20033;-52
2022/09/07 03:06:49;;;;;;;0.77;0.40;;;26.40;50.00;;;;;;5027686;28;20118;-48
2022/09/07 03:09:24;;;;;;;0.98;0.40;;;26.30;49.80;;;;;;5024218;28;20066;-50
2022/09/07 03:11:51;;;;;;;0.82;0.45;;;26.40;50.00;;;;;;5023270;28;20049;-52
2022/09/07 03:14:20;;;;;;;0.70;0.30;;;26.30;49.90;;;;;;5027301;28;20100;-49
2022/09/07 03:16:48;;;;;;;1.33;0.43;;;26.40;50.00;;;;;;5026388;28;20026;-52
2022/09/07 03:19:14;;;;;;;0.57;0.32;;;26.30;49.90;;;;;;5025583;28;20042;-54
2022/09/07 03:21:39;;;;;;;0.47;0.30;;;26.30;50.00;;;;;;5022043;28;20025;-51
2022/09/07 03:24:06;;;;;;;1.00;0.43;;;26.30;50.00;;;;;;5026745;28;20034;-53
2022/09/07 03:26:32;;;;;;;0.40;0.30;;;26.30;50.00;;;;;;5028619;28;20041;-53
2022/09/07 03:28:58;;;;;;;0.95;0.47;;;26.30;50.00;;;;;;5025383;28;20045;-52
2022/09/07 03:31:24;;;;;;;0.60;0.30;;;26.30;50.10;;;;;;5025121;28;20030;-49
2022/09/07 03:33:50;;;;;;;1.52;0.60;;;26.30;50.10;;;;;;5028196;28;20036;-54
2022/09/07 03:36:16;;;;;;;1.13;0.40;;;26.30;50.10;;;;;;5023202;28;20041;-52
2022/09/07 03:38:42;;;;;;;0.90;0.40;;;26.30;50.10;;;;;;5023691;28;20041;-50
2022/09/07 03:41:07;;;;;;;0.98;0.43;;;26.30;50.20;;;;;;5024169;28;20022;-47
2022/09/07 03:43:34;;;;;;;0.52;0.30;;;26.30;50.20;;;;;;5024471;28;20030;-54
2022/09/07 03:46:03;;;;;;;0.32;0.28;;;26.30;50.20;;;;;;5026862;28;20057;-52
2022/09/07 03:48:33;;;;;;;0.60;0.60;;;26.30;50.30;;;;;;5024222;28;20380;-53
2022/09/07 03:51:04;;;;;;;1.27;0.50;;;26.30;50.40;;;;;;5026141;28;20123;-52
2022/09/07 03:53:35;;;;;;;1.40;0.52;;;26.30;50.40;;;;;;5024823;28;20049;-51
2022/09/07 03:56:04;;;;;;;0.98;0.40;;;26.30;50.40;;;;;;5026906;28;20080;-52
2022/09/07 03:58:32;;;;;;;1.38;0.80;;;26.30;50.50;;;;;;5025243;28;20041;-54
2022/09/07 04:00:59;;;;;;;1.00;0.50;;;26.20;51.00;;;;;;5026341;28;20037;-52
2022/09/07 04:03:25;;;;;;;0.63;0.40;;;26.20;50.40;;;;;;5025213;28;20386;-52
2022/09/07 04:05:51;;;;;;;0.65;0.40;;;26.20;51.10;;;;;;5019028;28;20029;-52
2022/09/07 04:08:17;;;;;;;1.27;0.63;;;26.30;50.60;;;;;;5023518;28;20034;-50
2022/09/07 04:10:43;;;;;;;1.73;0.50;;;26.20;50.60;;;;;;5022325;28;20050;-53
2022/09/07 04:13:09;;;;;;;0.75;0.50;;;26.20;50.60;;;;;;5026631;28;20038;-52
2022/09/07 04:15:36;;;;;;;1.33;0.60;;;26.20;50.60;;;;;;5027481;28;20037;-51
2022/09/07 04:18:01;;;;;;;0.80;0.57;;;26.20;50.70;;;;;;5027325;28;20030;-53
2022/09/07 04:20:28;;;;;;;1.15;0.47;;;26.20;50.70;;;;;;5024167;28;20353;-51
2022/09/07 04:22:54;;;;;;;1.10;0.60;;;26.20;50.80;;;;;;5023159;28;20037;-51
2022/09/07 04:25:20;;;;;;;1.10;0.50;;;26.20;50.80;;;;;;5026460;28;20026;-52
2022/09/07 04:27:45;;;;;;;1.00;0.52;;;26.20;50.80;;;;;;5026561;28;20032;-52
2022/09/07 04:30:12;;;;;;;1.80;0.60;;;26.20;50.80;;;;;;5029792;28;20037;-50
2022/09/07 04:32:38;;;;;;;0.98;0.50;;;26.20;50.90;;;;;;5024976;28;20029;-53
2022/09/07 04:35:04;;;;;;;1.63;0.57;;;26.10;50.80;;;;;;5019570;28;20037;-53
2022/09/07 04:37:30;;;;;;;0.88;0.45;;;26.20;50.90;;;;;;5025794;28;20030;-53
2022/09/07 04:39:56;;;;;;;1.98;0.73;;;26.20;51.00;;;;;;5030306;28;20099;-52
2022/09/07 04:42:22;;;;;;;1.33;0.60;;;26.20;51.00;;;;;;5026726;28;20032;-51
2022/09/07 04:44:50;;;;;;;1.90;0.70;;;26.20;51.00;;;;;;5027110;28;20069;-52
2022/09/07 04:47:16;;;;;;;0.90;0.60;;;26.10;51.00;;;;;;5025884;28;20017;-51
2022/09/07 04:49:42;;;;;;;1.00;0.70;;;26.10;51.10;;;;;;5021885;28;20427;-50
2022/09/07 04:52:08;;;;;;;0.80;0.65;;;26.10;51.10;;;;;;5023470;28;20052;-50
2022/09/07 04:54:34;;;;;;;1.15;0.65;;;26.10;51.80;;;;;;5030332;28;20056;-50
2022/09/07 04:57:00;;;;;;;1.75;0.88;;;26.10;51.30;;;;;;5023444;28;20021;-54
2022/09/07 04:59:25;;;;;;;2.28;0.90;;;26.10;51.30;;;;;;5026648;28;20030;-54
2022/09/07 05:01:51;;;;;;;1.42;0.70;;;26.10;51.40;;;;;;5023343;28;20044;-50
2022/09/07 05:04:17;;;;;;;1.42;0.98;;;26.10;51.40;;;;;;5032240;28;20432;-51
2022/09/07 05:06:43;;;;;;;1.33;0.88;;;26.10;51.40;;;;;;5020289;28;20040;-50
2022/09/07 05:09:09;;;;;;;1.13;0.90;;;26.10;51.50;;;;;;5027250;28;20362;-51
2022/09/07 05:11:35;;;;;;;1.50;0.82;;;26.10;51.50;;;;;;5026986;28;20049;-52
2022/09/07 05:14:02;;;;;;;2.17;1.00;;;26.10;51.60;;;;;;5027396;28;20040;-49
2022/09/07 05:16:29;;;;;;;1.30;1.02;;;26.00;51.60;;;;;;5026975;28;20026;-54
2022/09/07 05:18:57;;;;;;;2.08;1.20;;;26.00;51.70;;;;;;5029435;28;20039;-49
2022/09/07 05:21:25;;;;;;;2.08;1.10;;;26.00;51.80;;;;;;5023785;28;20072;-54
2022/09/07 05:23:53;;;;;;;2.33;1.10;;;26.00;51.80;;;;;;5024877;28;20021;-49
2022/09/07 05:26:21;;;;;;;1.20;1.00;;;26.00;51.90;;;;;;5028292;28;20405;-50
2022/09/07 05:28:47;;;;;;;1.63;0.98;;;26.00;51.90;;;;;;5026872;28;20056;-51
2022/09/07 05:31:16;;;;;;;1.67;0.90;;;26.00;51.90;;;;;;5021973;28;20021;-48
2022/09/07 05:33:53;;;;;;;1.65;1.10;;;26.00;52.60;;;;;;5021790;28;20083;-51
2022/09/07 05:36:20;;;;;;;3.28;1.00;;;26.00;52.00;;;;;;5025592;28;20060;-52
2022/09/07 05:38:46;;;;;;;2.42;1.20;;;26.00;52.00;;;;;;5027147;28;20053;-51
2022/09/07 05:41:12;;;;;;;2.80;1.30;;;26.00;52.10;;;;;;5024383;28;20116;-52
2022/09/07 05:43:38;;;;;;;2.08;1.25;;;26.00;52.10;;;;;;5027264;28;20034;-53
2022/09/07 05:46:04;;;;;;;2.10;1.25;;;26.00;52.10;;;;;;5027530;28;20483;-51
2022/09/07 05:48:30;;;;;;;3.13;1.10;;;26.00;52.20;;;;;;5026398;28;20041;-52
2022/09/07 05:50:56;;;;;;;2.47;1.20;;;26.00;52.20;;;;;;5019986;28;20025;-53
2022/09/07 05:53:22;;;;;;;1.63;1.10;;;26.00;52.20;;;;;;5029900;28;20064;-49
2022/09/07 05:55:51;;;;;;;2.35;1.27;;;26.00;52.30;;;;;;5026089;28;20025;-52
2022/09/07 05:58:23;;;;;;;1.92;1.23;;;26.00;52.30;;;;;;5037901;28;20072;-50
2022/09/07 06:00:48;;;;;;;2.70;1.60;;;26.00;52.30;;;;;;5022803;28;20034;-51
2022/09/07 06:03:14;;;;;;;2.95;1.30;;;26.00;52.40;;;;;;5020482;28;20181;-50
2022/09/07 06:05:40;;;;;;;2.20;1.40;;;25.90;52.40;;;;;;5029229;28;20029;-51
2022/09/07 06:08:06;;;;;;;1.73;1.10;;;25.90;52.40;;;;;;5024283;28;21136;-50
2022/09/07 06:10:36;;;;;;;2.65;1.48;;;25.90;52.40;;;;;;5027874;28;20046;-52
2022/09/07 06:13:03;;;;;;;1.85;1.35;;;25.90;52.50;;;;;;5023518;28;20033;-52
2022/09/07 06:15:31;;;;;;;2.03;1.00;;;25.90;52.40;;;;;;5027600;28;20061;-54
2022/09/07 06:17:57;;;;;;;2.55;1.33;;;25.90;52.40;;;;;;5029030;28;20491;-54
2022/09/07 06:20:23;;;;;;;1.95;1.20;;;25.90;52.40;;;;;;5022353;28;20030;-53
2022/09/07 06:22:49;;;;;;;3.25;1.70;;;25.90;52.40;;;;;;5022322;28;20033;-54
2022/09/07 06:25:15;;;;;;;2.55;1.42;;;25.90;52.40;;;;;;5027005;28;20086;-55
2022/09/07 06:27:40;;;;;;;3.05;1.77;;;25.90;52.50;;;;;;5026051;28;20037;-54
2022/09/07 06:30:07;;;;;;;2.97;1.80;;;25.90;52.40;;;;;;5025149;28;20038;-52
2022/09/07 06:32:36;;;;;;;3.13;2.00;;;25.90;52.40;;;;;;5025967;28;20116;-54
2022/09/07 06:35:03;;;;;;;2.95;1.85;;;25.90;52.40;;;;;;5022580;28;20029;-54
2022/09/07 06:37:29;;;;;;;3.40;2.05;;;25.90;52.40;;;;;;5018142;28;20018;-49
2022/09/07 06:39:55;;;;;;;5.57;1.95;;;25.90;52.40;;;;;;5024983;28;20144;-52
2022/09/07 06:42:20;;;;;;;3.25;1.83;;;25.80;52.90;;;;;;5021792;28;20026;-54
2022/09/07 06:44:51;;;;;;;2.55;1.70;;;25.90;52.30;;;;;;5038984;28;20026;-53
2022/09/07 06:47:16;;;;;;;4.07;2.05;;;25.90;52.30;;;;;;5022336;28;20099;-54
2022/09/07 06:49:42;;;;;;;2.78;1.95;;;25.90;52.30;;;;;;5021714;28;20038;-52
2022/09/07 06:52:08;;;;;;;3.30;1.98;;;25.90;52.30;;;;;;5018203;28;20025;-53
2022/09/07 06:54:34;;;;;;;2.85;1.90;;;25.90;52.30;;;;;;5021529;28;20038;-55
2022/09/07 06:57:06;;;;;;;2.83;1.80;;;25.80;52.30;;;;;;5019531;28;20025;-52
2022/09/07 06:59:36;;;;;;;2.80;1.90;;;25.90;52.40;;;;;;5023363;28;20041;-54
2022/09/07 07:02:03;;;;;;;4.25;1.98;;;25.80;52.20;;;;;;5022470;28;20022;-55
2022/09/07 07:04:29;;;;;;;3.72;1.70;;;25.80;52.20;;;;;;5021793;28;20061;-53
2022/09/07 07:06:54;;;;;;;2.90;1.80;;;25.80;52.20;;;;;;5023237;28;20088;-53
2022/09/07 07:09:20;;;;;;;2.55;1.50;;;25.80;52.20;;;;;;5016321;28;20100;-53
2022/09/07 07:11:47;;;;;;;1.60;1.50;;;25.80;52.20;;;;;;5030965;28;20046;-53
2022/09/07 07:14:16;;;;;;;2.70;1.63;;;25.90;52.30;;;;;;5031818;28;20515;-52
2022/09/07 07:16:42;;;;;;;3.08;2.00;;;25.80;52.20;;;;;;5016320;28;20026;-54
2022/09/07 07:19:09;;;;;;;9.18;2.00;;;25.80;52.20;;;;;;5019797;28;20030;-55
2022/09/07 07:21:35;;;;;;;4.05;1.90;;;25.80;52.20;;;;;;5023485;28;20121;-52
2022/09/07 07:24:01;;;;;;;2.63;1.90;;;25.90;52.30;;;;;;5019505;28;20041;-55
2022/09/07 07:26:27;;;;;;;2.85;1.85;;;25.80;52.20;;;;;;5026201;28;20033;-52
2022/09/07 07:28:55;;;;;;;2.95;1.80;;;25.80;52.20;;;;;;5021438;28;20095;-54
2022/09/07 07:31:23;;;;;;;2.70;1.80;;;25.80;52.20;;;;;;5027676;28;20040;-53
2022/09/07 07:33:51;;;;;;;3.58;2.03;;;25.80;52.30;;;;;;5023197;28;20041;-51
2022/09/07 07:36:17;;;;;;;3.08;1.80;;;25.80;52.30;;;;;;5029134;28;20429;-54
2022/09/07 07:38:46;;;;;;;2.53;2.08;;;25.80;52.30;;;;;;5024453;28;20048;-54
2022/09/07 07:41:12;;;;;;;2.53;1.83;;;25.80;52.20;;;;;;5028404;28;20037;-51
2022/09/07 07:43:38;;;;;;;2.10;1.60;;;25.80;52.30;;;;;;5024663;28;20025;-54
2022/09/07 07:46:05;;;;;;;2.38;1.63;;;25.80;52.30;;;;;;5024771;28;20433;-54
2022/09/07 07:48:33;;;;;;;3.40;1.60;;;25.80;52.30;;;;;;5017495;28;20034;-52
2022/09/07 07:50:59;;;;;;;2.00;1.70;;;25.80;52.30;;;;;;5020962;28;20061;-49
2022/09/07 07:53:27;;;;;;;3.47;1.98;;;25.80;52.30;;;;;;5016260;28;20507;-50
2022/09/07 07:55:52;;;;;;;3.33;1.90;;;25.80;52.30;;;;;;5020257;28;20030;-52
2022/09/07 07:58:19;;;;;;;3.08;2.13;;;25.80;52.40;;;;;;5021012;28;20120;-49
2022/09/07 08:00:45;;;;;;;2.22;1.80;;;25.80;52.40;;;;;;5023671;28;20044;-53
2022/09/07 08:03:11;;;;;;;2.22;1.70;;;25.80;52.40;;;;;;5015003;28;20088;-50
2022/09/07 08:05:37;;;;;;;3.67;1.80;;;25.80;52.40;;;;;;5015089;28;20030;-55
2022/09/07 08:08:03;;;;;;;2.30;1.55;;;25.80;52.30;;;;;;5015065;28;20040;-53
2022/09/07 08:10:29;;;;;;;2.67;1.60;;;25.80;52.30;;;;;;5030061;28;20052;-52
2022/09/07 08:12:55;;;;;;;3.80;1.67;;;25.80;52.30;;;;;;5015230;28;20496;-51
2022/09/07 08:15:22;;;;;;;3.63;2.08;;;25.90;52.30;;;;;;5019779;28;21792;-50
2022/09/07 08:17:48;;;;;;;3.00;1.65;;;25.90;52.20;;;;;;5032395;28;20044;-51
2022/09/07 08:20:15;;;;;;;2.50;1.67;;;25.90;52.20;;;;;;5032240;28;20029;-52
2022/09/07 08:22:41;;;;;;;2.58;1.75;;;25.90;52.20;;;;;;5027314;28;20034;-51
2022/09/07 08:25:07;;;;;;;2.67;1.90;;;25.90;52.10;;;;;;5023068;28;20034;-53
2022/09/07 08:27:34;;;;;;;3.33;1.65;;;25.90;52.10;;;;;;5018621;28;20030;-54
2022/09/07 08:30:00;;;;;;;2.30;1.70;;;25.90;52.10;;;;;;5018289;28;20053;-52
2022/09/07 08:32:28;;;;;;;2.15;1.70;;;26.00;52.20;;;;;;5019516;28;20449;-56
2022/09/07 08:34:54;;;;;;;2.45;1.70;;;25.90;52.10;;;;;;5018672;28;20032;-53
2022/09/07 08:37:20;;;;;;;2.67;1.70;;;26.00;52.20;;;;;;5018463;28;20038;-55
2022/09/07 08:39:46;;;;;;;2.05;1.80;;;26.00;52.20;;;;;;5036750;28;20039;-51
2022/09/07 08:42:53;;;;;;;2.17;1.85;;;26.00;52.20;;;;;;5038227;28;20040;-49
2022/09/07 08:45:43;;;;;;;3.65;1.70;;;26.00;52.10;;;;;;5008998;28;20483;-51
2022/09/07 08:48:15;;;;;;;3.22;1.60;;;26.00;52.10;;;;;;5027168;28;20054;-53
2022/09/07 08:51:07;;;;;;;3.50;1.83;;;26.00;52.00;;;;;;5017509;28;20042;-53
2022/09/07 08:53:36;;;;;;;1.90;1.50;;;26.00;52.00;;;;;;5028949;28;20037;-54
2022/09/07 08:56:09;;;;;;;2.15;1.77;;;26.00;52.00;;;;;;5037753;28;20029;-51
2022/09/07 08:58:48;;;;;;;1.63;1.52;;;26.10;52.00;;;;;;5037795;28;20057;-51
2022/09/07 09:01:16;;;;;;;2.67;1.88;;;26.10;52.00;;;;;;5037844;28;20500;-52
2022/09/07 09:03:43;;;;;;;3.05;1.73;;;26.10;52.70;;;;;;5027310;28;20120;-50
2022/09/07 09:06:37;;;;;;;2.97;1.80;;;26.10;52.00;;;;;;5017682;28;20095;-53
2022/09/07 09:09:18;;;;;;;2.55;1.80;;;26.10;52.00;;;;;;5004616;28;20042;-50
2022/09/07 09:12:12;;;;;;;2.63;1.77;;;26.10;52.00;;;;;;5019711;28;20049;-51
2022/09/07 09:14:56;;;;;;;2.53;1.80;;;26.10;52.00;;;;;;5034712;28;20402;-52
2022/09/07 09:17:32;;;;;;;;;;;26.10;52.00;;;;;;5018450;28;20167;-54
2022/09/07 09:20:22;;;;;;;2.00;1.77;;;26.10;52.00;;;;;;5017436;28;19909;-55
2022/09/07 09:23:09;;;;;;;1.88;1.77;;;26.10;52.10;;;;;;5017613;28;20056;-52
2022/09/07 09:25:37;;;;;;;2.28;1.85;;;26.10;52.10;;;;;;5018287;28;20041;-54
2022/09/07 09:28:03;;;;;;;2.10;1.90;;;26.10;52.10;;;;;;5018425;28;20042;-51
2022/09/07 09:30:30;;;;;;;3.90;2.03;;;26.10;52.10;;;;;;5023056;28;20056;-53
2022/09/07 09:33:31;;;;;;;2.00;1.65;;;26.20;52.20;;;;;;5035477;28;20060;-55
2022/09/07 09:35:59;;;;;;;1.70;1.60;;;26.20;52.20;;;;;;4976355;28;20049;-52
2022/09/07 09:38:30;;;;;;;2.42;1.80;;;26.20;52.20;;;;;;5009166;28;20071;-53
2022/09/07 09:41:03;;;;;;;3.38;1.70;;;26.20;52.20;;;;;;5030017;28;20029;-55
2022/09/07 09:43:50;;;;;;;2.33;1.50;;;26.20;52.20;;;;;;5036610;28;20034;-55
2022/09/07 09:46:32;;;;;;;3.30;1.67;;;26.20;52.20;;;;;;5018144;28;20095;-54
2022/09/07 09:49:00;;;;;;;2.58;1.55;;;26.20;52.10;;;;;;5017276;28;20053;-55
2022/09/07 09:51:30;;;;;;;2.42;1.40;;;26.20;52.10;;;;;;5016970;28;20053;-53
2022/09/07 09:54:00;;;;;;;2.50;1.67;;;26.20;52.10;;;;;;5017964;28;20486;-55
2022/09/07 09:56:55;;;;;;;3.38;2.05;;;26.20;52.10;;;;;;5032832;28;20041;-55
2022/09/07 09:59:28;;;;;;;1.98;1.20;;;26.20;52.00;;;;;;5005359;28;20050;-57
2022/09/07 10:01:54;;;;;;;2.30;1.58;;;26.20;52.00;;;;;;5036939;28;20033;-55
2022/09/07 10:04:23;;;;;;;2.22;1.75;;;26.20;51.90;;;;;;5036253;28;20440;-53
2022/09/07 10:06:54;;;;;;;1.63;1.50;;;26.20;51.90;;;;;;5036328;28;20025;-54
2022/09/07 10:09:42;;;;;;;2.20;1.23;;;26.20;51.80;;;;;;5036637;28;20042;-55
2022/09/07 10:12:28;;;;;;;1.77;1.42;;;26.30;51.80;;;;;;5034618;28;20049;-55
2022/09/07 10:15:04;;;;;;;1.60;1.50;;;26.20;51.70;;;;;;5030202;28;20398;-52
2022/09/07 10:17:33;;;;;;;1.95;1.02;;;26.30;51.70;;;;;;5025525;28;20042;-54
2022/09/07 10:20:21;;;;;;;2.13;1.48;;;26.30;51.70;;;;;;5016610;28;20050;-54
2022/09/07 10:22:50;;;;;;;2.10;1.60;;;26.30;51.70;;;;;;5016056;28;20405;-53
2022/09/07 10:25:35;;;;;;;2.40;1.48;;;26.30;51.70;;;;;;5016322;28;20034;-54
2022/09/07 10:28:11;;;;;;;1.83;1.50;;;26.30;51.60;;;;;;5016604;28;20449;-60
2022/09/07 10:31:31;;;;;;;2.17;1.40;;;26.30;51.60;;;;;;5020542;28;20056;-61
2022/09/07 10:34:35;;;;;;;2.22;1.00;;;26.40;51.70;;;;;;4949990;28;20085;-63
2022/09/07 10:37:05;;;;;;;1.15;1.05;;;26.30;51.20;;;;;;5019499;28;20172;-62
2022/09/07 10:39:40;;;;;;;3.97;1.40;;;26.40;51.40;;;;;;5024521;28;20030;-57
2022/09/07 10:42:29;;;;;;;1.40;1.10;;;26.40;51.60;;;;;;5022806;28;20037;-54
2022/09/07 10:45:16;;;;;;;3.78;1.30;;;26.50;51.90;;;;;;5020372;28;20113;-56
2022/09/07 10:47:45;;;;;;;3.35;1.20;;;26.50;52.00;;;;;;5019560;28;20510;-57
2022/09/07 10:50:41;;;;;;;3.13;1.30;;;26.70;52.10;;;;;;5016331;28;20076;-58
2022/09/07 10:53:12;;;;;;;2.28;1.27;;;26.80;52.00;;;;;;5019965;28;20051;-59
2022/09/07 10:55:41;;;;;;;2.75;1.20;;;26.90;51.80;;;;;;5020661;28;20036;-56
2022/09/07 10:58:30;;;;;;;2.35;1.02;;;27.00;51.70;;;;;;5020514;28;20034;-59
2022/09/07 11:01:25;;;;;;;2.47;1.30;;;27.10;51.60;;;;;;5020968;28;20113;-57
2022/09/07 11:04:10;;;;;;;4.22;1.20;;;27.30;51.50;;;;;;5020620;28;20111;-58
2022/09/07 11:06:39;;;;;;;;;;;27.40;51.30;;;;;;5023841;28;20036;-56
2022/09/07 11:09:38;;;;;;;1.95;1.05;;;27.50;51.10;;;;;;5025985;28;19921;-55
2022/09/07 11:12:18;;;;;;;1.92;1.17;;;27.60;50.70;;;;;;5025068;28;20050;-58
2022/09/07 11:14:51;;;;;;;1.98;1.33;;;27.70;50.30;;;;;;5020551;28;20098;-58
2022/09/07 11:17:22;;;;;;;1.15;1.00;;;27.80;50.10;;;;;;5020255;28;20041;-63
2022/09/07 11:20:16;;;;;;;3.38;1.10;;;27.90;49.90;;;;;;5023355;28;20029;-55
2022/09/07 11:22:52;;;;;;;2.55;1.00;;;28.00;49.70;;;;;;5019682;28;20116;-55
2022/09/07 11:25:42;;;;;;;1.77;1.10;;;28.10;49.70;;;;;;5019594;28;20033;-53
2022/09/07 11:28:24;;;;;;;3.95;1.40;;;28.20;49.50;;;;;;5025247;28;20025;-59
2022/09/07 11:30:56;;;;;;;4.25;1.30;;;28.30;49.40;;;;;;5026100;28;20037;-60
2022/09/07 11:33:27;;;;;;;2.00;1.40;;;28.30;49.20;;;;;;5023310;28;20026;-53
2022/09/07 11:36:10;;;;;;;2.60;1.20;;;28.40;49.20;;;;;;5027939;28;20025;-53
2022/09/07 11:38:51;;;;;;;2.25;1.00;;;28.40;49.10;;;;;;5022157;28;20044;-52
2022/09/07 11:41:27;;;;;;;3.80;1.13;;;28.50;49.00;;;;;;5024004;28;20522;-53
2022/09/07 11:44:01;;;;;;;3.03;0.90;;;28.60;49.00;;;;;;5024441;28;20026;-49
2022/09/07 11:46:39;;;;;;;1.10;0.90;;;28.60;48.90;;;;;;5025044;28;20048;-54
2022/09/07 11:49:18;;;;;;;1.00;0.90;;;28.60;48.60;;;;;;5027025;28;20045;-52
2022/09/07 11:52:04;;;;;;;2.50;1.25;;;28.70;48.50;;;;;;5025074;28;20032;-53
2022/09/07 11:54:30;;;;;;;1.55;0.90;;;28.70;48.50;;;;;;5025637;28;20497;-58
2022/09/07 11:57:06;;;;;;;1.85;0.90;;;28.70;48.60;;;;;;5027144;28;20026;-54
2022/09/07 11:59:50;;;;;;;1.65;1.00;;;28.70;48.40;;;;;;5025336;28;20022;-58
2022/09/07 12:02:30;;;;;;;1.40;0.88;;;28.80;48.30;;;;;;5024986;28;20429;-58
2022/09/07 12:05:21;;;;;;;1.80;1.00;;;28.80;48.20;;;;;;5026253;28;20026;-58
2022/09/07 12:08:01;;;;;;;1.35;0.90;;;28.80;48.10;;;;;;5026182;28;20046;-60
2022/09/07 12:10:33;;;;;;;5.60;1.15;;;28.80;48.00;;;;;;5028063;28;20502;-57
2022/09/07 12:13:21;;;;;;;2.13;1.00;;;28.80;47.80;;;;;;5023875;28;20111;-57
2022/09/07 12:15:56;;;;;;;2.90;1.35;;;28.80;47.50;;;;;;5028855;28;20034;-56
2022/09/07 12:18:42;;;;;;;5.05;3.20;;;28.80;47.50;;;;;;5023258;28;20330;-57
2022/09/07 12:21:49;;;;;;;6.38;4.40;;;28.80;47.60;;;;;;5023235;28;20400;-57
2022/09/07 12:24:36;;;;;;;7.70;3.63;;;28.80;47.80;;;;;;5024307;28;20120;-58
2022/09/07 12:27:18;;;;;;;9.23;3.60;;;28.80;47.90;;;;;;5017527;28;20025;-58
2022/09/07 12:29:44;;;;;;;3.78;2.22;;;28.90;48.10;;;;;;5026240;28;20034;-55
2022/09/07 12:32:11;;;;;;;4.78;1.88;;;28.90;48.10;;;;;;5019178;28;20409;-62
2022/09/07 12:34:49;;;;;;;3.70;1.85;;;28.90;47.80;;;;;;5028370;28;20025;-61
2022/09/07 12:37:15;;;;;;;4.18;2.28;;;28.80;47.30;;;;;;5032564;28;20025;-58
2022/09/07 12:39:43;;;;;;;3.50;1.88;;;28.80;46.30;;;;;;5034634;28;20437;-60
2022/09/07 12:42:20;;;;;;;3.88;1.65;;;28.70;45.20;;;;;;5032880;28;20033;-56
2022/09/07 12:44:46;;;;;;;3.65;1.60;;;28.70;44.90;;;;;;5034036;28;20030;-58
2022/09/07 12:47:13;;;;;;;1.30;1.15;;;28.70;44.50;;;;;;5017711;28;20121;-58
2022/09/07 12:50:05;;;;;;;2.33;1.35;;;28.70;43.90;;;;;;5031894;28;20077;-56
2022/09/07 12:52:47;;;;;;;2.33;1.20;;;28.60;43.00;;;;;;5014959;28;20026;-60
2022/09/07 12:55:23;;;;;;;2.15;1.50;;;28.60;42.20;;;;;;5014519;28;20065;-59
2022/09/07 12:58:20;;;;;;;2.22;1.30;;;28.60;41.40;;;;;;5014544;28;20081;-61
2022/09/07 13:01:12;;;;;;;2.45;1.20;;;28.50;40.30;;;;;;5001165;28;20104;-59
2022/09/07 13:04:15;;;;;;;1.83;1.15;;;28.40;39.90;;;;;;5015932;28;20053;-60
2022/09/07 13:07:05;;;;;;;2.92;1.15;;;28.30;39.30;;;;;;5038050;28;20076;-55
2022/09/07 13:09:38;;;;;;;1.83;1.27;;;28.30;38.80;;;;;;5037897;28;20091;-56
2022/09/07 13:12:23;;;;;;;2.28;1.20;;;28.20;38.30;;;;;;5035713;28;20424;-59
2022/09/07 13:14:54;;;;;;;4.30;1.42;;;28.10;37.90;;;;;;5036229;28;20033;-59
2022/09/07 13:17:35;;;;;;;2.00;1.10;;;28.10;37.60;;;;;;5037061;28;20073;-59